Terminal Aerodrome Forecast
Issued by NWS Blacksburg, VA

Home | Current Version | Previous Version | Text Only | Print | Product List | Glossary On
Versions: 1 2 3 4 5 6 7 8 9 10 11 12 13 14 15 16 17 18 19 20 21 22 23 24 25 26 27 28 29 30 31
353
FTUS41 KRNK 232325
TAFROA
TAF
KROA 232325Z 2400/2424 VRB04KT P6SM BKN060
      TEMPO 2409/2412 3SM BR SCT005
     FM241500 17004KT P6SM SCT080
     FM242000 17008KT P6SM SCT200=

USA.gov is the U.S. government's official web portal to all federal, state and local government web resources and services.